sensor_id;sensor_type;location;lat;lon;timestamp;temperature;humidity
64501;DHT22;50874;24.150;-110.320;2022-12-17T00:02:01;19.70;99.90
64501;DHT22;50874;24.150;-110.320;2022-12-17T00:04:46;19.60;99.90
64501;DHT22;50874;24.150;-110.320;2022-12-17T00:07:31;19.40;99.90
64501;DHT22;50874;24.150;-110.320;2022-12-17T00:10:15;19.30;99.90
64501;DHT22;50874;24.150;-110.320;2022-12-17T00:13:00;19.20;99.90
64501;DHT22;50874;24.150;-110.320;2022-12-17T00:15:53;19.20;99.90
64501;DHT22;50874;24.150;-110.320;2022-12-17T00:18:37;19.20;99.90
64501;DHT22;50874;24.150;-110.320;2022-12-17T00:21:22;19.20;99.90
64501;DHT22;50874;24.150;-110.320;2022-12-17T00:24:07;19.20;99.90
64501;DHT22;50874;24.150;-110.320;2022-12-17T00:26:51;19.20;99.90
64501;DHT22;50874;24.150;-110.320;2022-12-17T00:29:36;19.20;99.90
64501;DHT22;50874;24.150;-110.320;2022-12-17T00:32:20;19.20;99.90
64501;DHT22;50874;24.150;-110.320;2022-12-17T00:35:05;19.10;99.90
64501;DHT22;50874;24.150;-110.320;2022-12-17T00:37:50;19.10;99.90
64501;DHT22;50874;24.150;-110.320;2022-12-17T00:40:54;19.00;99.90
64501;DHT22;50874;24.150;-110.320;2022-12-17T00:43:39;19.00;99.90
64501;DHT22;50874;24.150;-110.320;2022-12-17T00:46:34;18.90;99.90
64501;DHT22;50874;24.150;-110.320;2022-12-17T00:49:20;18.90;99.90
64501;DHT22;50874;24.150;-110.320;2022-12-17T00:52:04;18.80;99.90
64501;DHT22;50874;24.150;-110.320;2022-12-17T00:54:49;18.80;99.90
64501;DHT22;50874;24.150;-110.320;2022-12-17T00:57:34;18.70;99.90
64501;DHT22;50874;24.150;-110.320;2022-12-17T01:00:19;18.70;99.90
64501;DHT22;50874;24.150;-110.320;2022-12-17T01:03:09;18.60;99.90
64501;DHT22;50874;24.150;-110.320;2022-12-17T01:05:54;18.60;99.90
64501;DHT22;50874;24.150;-110.320;2022-12-17T01:08:39;18.60;99.90
64501;DHT22;50874;24.150;-110.320;2022-12-17T01:11:24;18.60;99.90
64501;DHT22;50874;24.150;-110.320;2022-12-17T01:14:09;18.60;99.90
64501;DHT22;50874;24.150;-110.320;2022-12-17T01:16:53;18.60;99.90
64501;DHT22;50874;24.150;-110.320;2022-12-17T01:19:38;18.50;99.90
64501;DHT22;50874;24.150;-110.320;2022-12-17T01:22:23;18.50;99.90
64501;DHT22;50874;24.150;-110.320;2022-12-17T01:25:08;18.50;99.90
64501;DHT22;50874;24.150;-110.320;2022-12-17T01:27:53;18.50;99.90
64501;DHT22;50874;24.150;-110.320;2022-12-17T01:30:38;18.40;99.90
64501;DHT22;50874;24.150;-110.320;2022-12-17T01:33:23;18.40;99.90
64501;DHT22;50874;24.150;-110.320;2022-12-17T01:36:08;18.40;99.90
64501;DHT22;50874;24.150;-110.320;2022-12-17T01:38:52;18.40;99.90
64501;DHT22;50874;24.150;-110.320;2022-12-17T01:41:37;18.40;99.90
64501;DHT22;50874;24.150;-110.320;2022-12-17T01:47:27;18.30;99.90
64501;DHT22;50874;24.150;-110.320;2022-12-17T01:50:14;18.30;99.90
64501;DHT22;50874;24.150;-110.320;2022-12-17T01:53:02;18.30;99.90
64501;DHT22;50874;24.150;-110.320;2022-12-17T01:55:48;18.30;99.90
64501;DHT22;50874;24.150;-110.320;2022-12-17T01:58:34;18.30;99.90
64501;DHT22;50874;24.150;-110.320;2022-12-17T02:01:19;18.30;99.90
64501;DHT22;50874;24.150;-110.320;2022-12-17T02:04:06;18.30;99.90
64501;DHT22;50874;24.150;-110.320;2022-12-17T02:13:37;18.30;99.90
64501;DHT22;50874;24.150;-110.320;2022-12-17T02:16:30;18.30;99.90
64501;DHT22;50874;24.150;-110.320;2022-12-17T02:19:57;18.30;99.90
64501;DHT22;50874;24.150;-110.320;2022-12-17T02:26:17;18.10;99.90
64501;DHT22;50874;24.150;-110.320;2022-12-17T02:29:05;18.10;99.90
64501;DHT22;50874;24.150;-110.320;2022-12-17T02:31:53;18.10;99.90
64501;DHT22;50874;24.150;-110.320;2022-12-17T02:34:47;18.10;99.90
64501;DHT22;50874;24.150;-110.320;2022-12-17T02:37:32;18.00;99.90
64501;DHT22;50874;24.150;-110.320;2022-12-17T02:40:21;18.10;99.90
64501;DHT22;50874;24.150;-110.320;2022-12-17T02:43:08;18.00;99.90
64501;DHT22;50874;24.150;-110.320;2022-12-17T02:45:53;18.00;99.90
64501;DHT22;50874;24.150;-110.320;2022-12-17T02:48:39;18.00;99.90
64501;DHT22;50874;24.150;-110.320;2022-12-17T02:51:24;18.00;99.90
64501;DHT22;50874;24.150;-110.320;2022-12-17T02:54:09;18.00;99.90
64501;DHT22;50874;24.150;-110.320;2022-12-17T02:56:54;18.00;99.90
64501;DHT22;50874;24.150;-110.320;2022-12-17T02:59:39;18.00;99.90
64501;DHT22;50874;24.150;-110.320;2022-12-17T03:02:24;18.00;99.90
64501;DHT22;50874;24.150;-110.320;2022-12-17T03:05:08;18.00;99.90
64501;DHT22;50874;24.150;-110.320;2022-12-17T03:07:53;18.00;99.90
64501;DHT22;50874;24.150;-110.320;2022-12-17T03:10:37;18.00;99.90
64501;DHT22;50874;24.150;-110.320;2022-12-17T03:13:24;18.00;99.90
64501;DHT22;50874;24.150;-110.320;2022-12-17T03:16:15;18.00;99.90
64501;DHT22;50874;24.150;-110.320;2022-12-17T03:19:00;18.00;99.90
64501;DHT22;50874;24.150;-110.320;2022-12-17T03:21:45;18.00;99.90
64501;DHT22;50874;24.150;-110.320;2022-12-17T03:24:30;18.00;99.90
64501;DHT22;50874;24.150;-110.320;2022-12-17T03:27:15;18.00;99.90
64501;DHT22;50874;24.150;-110.320;2022-12-17T03:29:59;18.00;99.90
64501;DHT22;50874;24.150;-110.320;2022-12-17T03:32:44;18.00;99.90
64501;DHT22;50874;24.150;-110.320;2022-12-17T03:35:29;18.00;99.90
64501;DHT22;50874;24.150;-110.320;2022-12-17T03:38:14;18.00;99.90
64501;DHT22;50874;24.150;-110.320;2022-12-17T03:40:58;18.00;99.90
64501;DHT22;50874;24.150;-110.320;2022-12-17T03:43:43;18.00;99.90
64501;DHT22;50874;24.150;-110.320;2022-12-17T03:46:28;18.00;99.90
64501;DHT22;50874;24.150;-110.320;2022-12-17T03:49:12;17.90;99.90
64501;DHT22;50874;24.150;-110.320;2022-12-17T03:51:57;17.90;99.90
64501;DHT22;50874;24.150;-110.320;2022-12-17T03:54:42;17.90;99.90
64501;DHT22;50874;24.150;-110.320;2022-12-17T03:57:27;17.80;99.90
64501;DHT22;50874;24.150;-110.320;2022-12-17T04:00:12;17.80;99.90
64501;DHT22;50874;24.150;-110.320;2022-12-17T04:02:57;17.80;99.90
64501;DHT22;50874;24.150;-110.320;2022-12-17T04:05:42;17.80;99.90
64501;DHT22;50874;24.150;-110.320;2022-12-17T04:08:26;17.80;99.90
64501;DHT22;50874;24.150;-110.320;2022-12-17T04:11:11;17.80;99.90
64501;DHT22;50874;24.150;-110.320;2022-12-17T04:14:13;17.80;99.90
64501;DHT22;50874;24.150;-110.320;2022-12-17T04:16:57;17.70;99.90
64501;DHT22;50874;24.150;-110.320;2022-12-17T04:19:59;17.70;99.90
64501;DHT22;50874;24.150;-110.320;2022-12-17T04:22:44;17.70;99.90
64501;DHT22;50874;24.150;-110.320;2022-12-17T04:25:29;17.70;99.90
64501;DHT22;50874;24.150;-110.320;2022-12-17T04:28:14;17.70;99.90
64501;DHT22;50874;24.150;-110.320;2022-12-17T04:30:58;17.70;99.90
64501;DHT22;50874;24.150;-110.320;2022-12-17T04:33:43;17.70;99.90
64501;DHT22;50874;24.150;-110.320;2022-12-17T04:36:27;17.70;99.90
64501;DHT22;50874;24.150;-110.320;2022-12-17T04:39:12;17.70;99.90
64501;DHT22;50874;24.150;-110.320;2022-12-17T04:41:56;17.70;99.90
64501;DHT22;50874;24.150;-110.320;2022-12-17T04:44:41;17.80;99.90
64501;DHT22;50874;24.150;-110.320;2022-12-17T04:47:25;17.70;99.90
64501;DHT22;50874;24.150;-110.320;2022-12-17T04:50:14;17.70;99.90
64501;DHT22;50874;24.150;-110.320;2022-12-17T04:53:04;17.70;99.90
64501;DHT22;50874;24.150;-110.320;2022-12-17T04:55:49;17.70;99.90
64501;DHT22;50874;24.150;-110.320;2022-12-17T04:58:37;17.70;99.90
64501;DHT22;50874;24.150;-110.320;2022-12-17T05:01:21;17.70;99.90
64501;DHT22;50874;24.150;-110.320;2022-12-17T05:04:06;17.70;99.90
64501;DHT22;50874;24.150;-110.320;2022-12-17T05:06:51;17.70;99.90
64501;DHT22;50874;24.150;-110.320;2022-12-17T05:09:36;17.70;99.90
64501;DHT22;50874;24.150;-110.320;2022-12-17T05:12:21;17.70;99.90
64501;DHT22;50874;24.150;-110.320;2022-12-17T05:15:06;17.70;99.90
64501;DHT22;50874;24.150;-110.320;2022-12-17T05:17:51;17.70;99.90
64501;DHT22;50874;24.150;-110.320;2022-12-17T05:20:36;17.60;99.90
64501;DHT22;50874;24.150;-110.320;2022-12-17T05:23:21;17.70;99.90
64501;DHT22;50874;24.150;-110.320;2022-12-17T05:26:16;17.70;99.90
64501;DHT22;50874;24.150;-110.320;2022-12-17T05:29:02;17.70;99.90
64501;DHT22;50874;24.150;-110.320;2022-12-17T05:31:48;17.60;99.90
64501;DHT22;50874;24.150;-110.320;2022-12-17T05:34:33;17.60;99.90
64501;DHT22;50874;24.150;-110.320;2022-12-17T05:37:18;17.60;99.90
64501;DHT22;50874;24.150;-110.320;2022-12-17T05:40:03;17.60;99.90
64501;DHT22;50874;24.150;-110.320;2022-12-17T05:43:05;17.60;99.90
64501;DHT22;50874;24.150;-110.320;2022-12-17T05:45:51;17.60;99.90
64501;DHT22;50874;24.150;-110.320;2022-12-17T05:48:36;17.60;99.90
64501;DHT22;50874;24.150;-110.320;2022-12-17T05:51:21;17.60;99.90
64501;DHT22;50874;24.150;-110.320;2022-12-17T05:54:06;17.60;99.90
64501;DHT22;50874;24.150;-110.320;2022-12-17T05:56:51;17.50;99.90
64501;DHT22;50874;24.150;-110.320;2022-12-17T05:59:36;17.50;99.90
64501;DHT22;50874;24.150;-110.320;2022-12-17T06:02:22;17.40;99.90
64501;DHT22;50874;24.150;-110.320;2022-12-17T06:05:06;17.30;99.90
64501;DHT22;50874;24.150;-110.320;2022-12-17T06:07:51;17.20;99.90
64501;DHT22;50874;24.150;-110.320;2022-12-17T06:10:36;17.10;99.90
64501;DHT22;50874;24.150;-110.320;2022-12-17T06:13:20;17.10;99.90
64501;DHT22;50874;24.150;-110.320;2022-12-17T06:16:05;17.10;99.90
64501;DHT22;50874;24.150;-110.320;2022-12-17T06:18:50;17.00;99.90
64501;DHT22;50874;24.150;-110.320;2022-12-17T06:21:35;17.00;99.90
64501;DHT22;50874;24.150;-110.320;2022-12-17T06:24:20;16.90;99.90
64501;DHT22;50874;24.150;-110.320;2022-12-17T06:27:04;16.90;99.90
64501;DHT22;50874;24.150;-110.320;2022-12-17T06:29:49;16.90;99.90
64501;DHT22;50874;24.150;-110.320;2022-12-17T06:32:33;16.90;99.90
64501;DHT22;50874;24.150;-110.320;2022-12-17T06:35:18;16.80;99.90
64501;DHT22;50874;24.150;-110.320;2022-12-17T06:38:05;16.80;99.90
64501;DHT22;50874;24.150;-110.320;2022-12-17T06:40:51;16.80;99.90
64501;DHT22;50874;24.150;-110.320;2022-12-17T06:43:35;16.70;99.90
64501;DHT22;50874;24.150;-110.320;2022-12-17T06:46:21;16.70;99.90
64501;DHT22;50874;24.150;-110.320;2022-12-17T06:49:05;16.60;99.90
64501;DHT22;50874;24.150;-110.320;2022-12-17T06:51:50;16.60;99.90
64501;DHT22;50874;24.150;-110.320;2022-12-17T06:54:35;16.70;99.90
64501;DHT22;50874;24.150;-110.320;2022-12-17T06:57:20;16.60;99.90
64501;DHT22;50874;24.150;-110.320;2022-12-17T07:00:05;16.60;99.90
64501;DHT22;50874;24.150;-110.320;2022-12-17T07:02:54;16.60;99.90
64501;DHT22;50874;24.150;-110.320;2022-12-17T07:05:39;16.60;99.90
64501;DHT22;50874;24.150;-110.320;2022-12-17T07:08:24;16.60;99.90
64501;DHT22;50874;24.150;-110.320;2022-12-17T07:11:09;16.60;99.90
64501;DHT22;50874;24.150;-110.320;2022-12-17T07:13:54;16.60;99.90
64501;DHT22;50874;24.150;-110.320;2022-12-17T07:16:38;16.70;99.90
64501;DHT22;50874;24.150;-110.320;2022-12-17T07:19:23;16.80;99.90
64501;DHT22;50874;24.150;-110.320;2022-12-17T07:22:07;17.00;99.90
64501;DHT22;50874;24.150;-110.320;2022-12-17T07:24:52;17.20;99.90
64501;DHT22;50874;24.150;-110.320;2022-12-17T07:27:37;17.30;99.90
64501;DHT22;50874;24.150;-110.320;2022-12-17T07:30:22;17.40;99.90
64501;DHT22;50874;24.150;-110.320;2022-12-17T07:33:08;17.60;99.90
64501;DHT22;50874;24.150;-110.320;2022-12-17T07:35:54;17.60;99.90
64501;DHT22;50874;24.150;-110.320;2022-12-17T07:38:39;17.50;99.90
64501;DHT22;50874;24.150;-110.320;2022-12-17T07:41:24;17.50;99.90
64501;DHT22;50874;24.150;-110.320;2022-12-17T07:44:09;17.50;99.90
64501;DHT22;50874;24.150;-110.320;2022-12-17T07:47:11;17.50;99.90
64501;DHT22;50874;24.150;-110.320;2022-12-17T07:49:55;17.40;99.90
64501;DHT22;50874;24.150;-110.320;2022-12-17T07:52:40;17.40;99.90
64501;DHT22;50874;24.150;-110.320;2022-12-17T07:55:25;17.40;99.90
64501;DHT22;50874;24.150;-110.320;2022-12-17T07:58:10;17.40;99.90
64501;DHT22;50874;24.150;-110.320;2022-12-17T08:00:58;17.40;99.90
64501;DHT22;50874;24.150;-110.320;2022-12-17T08:03:43;17.50;99.90
64501;DHT22;50874;24.150;-110.320;2022-12-17T08:06:28;17.50;99.90
64501;DHT22;50874;24.150;-110.320;2022-12-17T08:09:12;17.50;99.90
64501;DHT22;50874;24.150;-110.320;2022-12-17T08:11:57;17.50;99.90
64501;DHT22;50874;24.150;-110.320;2022-12-17T08:14:41;17.50;99.90
64501;DHT22;50874;24.150;-110.320;2022-12-17T08:17:26;17.40;99.90
64501;DHT22;50874;24.150;-110.320;2022-12-17T08:20:11;17.40;99.90
64501;DHT22;50874;24.150;-110.320;2022-12-17T08:23:03;17.30;99.90
64501;DHT22;50874;24.150;-110.320;2022-12-17T08:25:47;17.20;99.90
64501;DHT22;50874;24.150;-110.320;2022-12-17T08:28:32;17.20;99.90
64501;DHT22;50874;24.150;-110.320;2022-12-17T08:31:17;17.20;99.90
64501;DHT22;50874;24.150;-110.320;2022-12-17T08:34:02;17.10;99.90
64501;DHT22;50874;24.150;-110.320;2022-12-17T08:36:47;17.10;99.90
64501;DHT22;50874;24.150;-110.320;2022-12-17T08:39:32;17.00;99.90
64501;DHT22;50874;24.150;-110.320;2022-12-17T08:42:16;17.00;99.90
64501;DHT22;50874;24.150;-110.320;2022-12-17T08:45:01;17.00;99.90
64501;DHT22;50874;24.150;-110.320;2022-12-17T08:47:45;17.00;99.90
64501;DHT22;50874;24.150;-110.320;2022-12-17T08:50:30;17.00;99.90
64501;DHT22;50874;24.150;-110.320;2022-12-17T08:53:14;17.00;99.90
64501;DHT22;50874;24.150;-110.320;2022-12-17T08:55:59;17.00;99.90
64501;DHT22;50874;24.150;-110.320;2022-12-17T08:58:44;17.10;99.90
64501;DHT22;50874;24.150;-110.320;2022-12-17T09:01:28;17.20;99.90
64501;DHT22;50874;24.150;-110.320;2022-12-17T09:04:13;17.10;99.90
64501;DHT22;50874;24.150;-110.320;2022-12-17T09:06:58;17.10;99.90
64501;DHT22;50874;24.150;-110.320;2022-12-17T09:09:42;17.10;99.90
64501;DHT22;50874;24.150;-110.320;2022-12-17T09:12:27;17.20;99.90
64501;DHT22;50874;24.150;-110.320;2022-12-17T09:15:11;17.20;99.90
64501;DHT22;50874;24.150;-110.320;2022-12-17T09:17:56;17.20;99.90
64501;DHT22;50874;24.150;-110.320;2022-12-17T09:20:41;17.20;99.90
64501;DHT22;50874;24.150;-110.320;2022-12-17T09:23:25;17.10;99.90
64501;DHT22;50874;24.150;-110.320;2022-12-17T09:26:10;17.10;99.90
64501;DHT22;50874;24.150;-110.320;2022-12-17T09:28:56;17.10;99.90
64501;DHT22;50874;24.150;-110.320;2022-12-17T09:31:41;17.10;99.90
64501;DHT22;50874;24.150;-110.320;2022-12-17T09:34:28;17.20;99.90
64501;DHT22;50874;24.150;-110.320;2022-12-17T09:37:13;17.20;99.90
64501;DHT22;50874;24.150;-110.320;2022-12-17T09:39:57;17.20;99.90
64501;DHT22;50874;24.150;-110.320;2022-12-17T09:42:44;17.30;99.90
64501;DHT22;50874;24.150;-110.320;2022-12-17T09:45:45;17.30;99.90
64501;DHT22;50874;24.150;-110.320;2022-12-17T09:49:02;17.20;99.90
64501;DHT22;50874;24.150;-110.320;2022-12-17T09:51:47;17.20;99.90
64501;DHT22;50874;24.150;-110.320;2022-12-17T09:54:47;17.20;99.90
64501;DHT22;50874;24.150;-110.320;2022-12-17T09:57:35;17.20;99.90
64501;DHT22;50874;24.150;-110.320;2022-12-17T10:00:28;17.10;99.90
64501;DHT22;50874;24.150;-110.320;2022-12-17T10:06:24;17.00;99.90
64501;DHT22;50874;24.150;-110.320;2022-12-17T10:09:14;17.00;99.90
64501;DHT22;50874;24.150;-110.320;2022-12-17T10:12:11;17.00;99.90
64501;DHT22;50874;24.150;-110.320;2022-12-17T10:14:57;17.00;99.90
64501;DHT22;50874;24.150;-110.320;2022-12-17T10:17:42;17.00;99.90
64501;DHT22;50874;24.150;-110.320;2022-12-17T10:23:28;17.00;99.90
64501;DHT22;50874;24.150;-110.320;2022-12-17T10:26:22;17.00;99.90
64501;DHT22;50874;24.150;-110.320;2022-12-17T10:32:20;16.90;99.90
64501;DHT22;50874;24.150;-110.320;2022-12-17T10:35:18;16.90;99.90
64501;DHT22;50874;24.150;-110.320;2022-12-17T10:38:26;16.90;99.90
64501;DHT22;50874;24.150;-110.320;2022-12-17T10:41:24;16.80;99.90
64501;DHT22;50874;24.150;-110.320;2022-12-17T10:47:12;16.90;99.90
64501;DHT22;50874;24.150;-110.320;2022-12-17T10:50:01;16.90;99.90
64501;DHT22;50874;24.150;-110.320;2022-12-17T10:52:47;16.90;99.90
64501;DHT22;50874;24.150;-110.320;2022-12-17T10:55:33;16.90;99.90
64501;DHT22;50874;24.150;-110.320;2022-12-17T10:58:28;17.00;99.90
64501;DHT22;50874;24.150;-110.320;2022-12-17T11:01:24;17.00;99.90
64501;DHT22;50874;24.150;-110.320;2022-12-17T11:04:23;17.00;99.90
64501;DHT22;50874;24.150;-110.320;2022-12-17T11:07:13;16.90;99.90
64501;DHT22;50874;24.150;-110.320;2022-12-17T11:10:00;16.90;99.90
64501;DHT22;50874;24.150;-110.320;2022-12-17T11:12:55;16.80;99.90
64501;DHT22;50874;24.150;-110.320;2022-12-17T11:15:56;16.90;99.90
64501;DHT22;50874;24.150;-110.320;2022-12-17T11:18:49;16.80;99.90
64501;DHT22;50874;24.150;-110.320;2022-12-17T11:21:50;16.70;99.90
64501;DHT22;50874;24.150;-110.320;2022-12-17T11:27:42;16.70;99.90
64501;DHT22;50874;24.150;-110.320;2022-12-17T11:30:28;16.60;99.90
64501;DHT22;50874;24.150;-110.320;2022-12-17T11:33:33;16.70;99.90
64501;DHT22;50874;24.150;-110.320;2022-12-17T11:36:41;16.70;99.90
64501;DHT22;50874;24.150;-110.320;2022-12-17T11:42:58;16.70;99.90
64501;DHT22;50874;24.150;-110.320;2022-12-17T11:46:02;16.60;99.90
64501;DHT22;50874;24.150;-110.320;2022-12-17T11:55:11;16.60;99.90
64501;DHT22;50874;24.150;-110.320;2022-12-17T12:13:37;16.50;99.90
64501;DHT22;50874;24.150;-110.320;2022-12-17T12:16:31;16.30;99.90
64501;DHT22;50874;24.150;-110.320;2022-12-17T12:22:30;16.20;99.90
64501;DHT22;50874;24.150;-110.320;2022-12-17T12:25:21;16.40;99.90
64501;DHT22;50874;24.150;-110.320;2022-12-17T12:28:16;16.30;99.90
64501;DHT22;50874;24.150;-110.320;2022-12-17T12:31:12;16.30;99.90
64501;DHT22;50874;24.150;-110.320;2022-12-17T12:34:03;16.40;99.90
64501;DHT22;50874;24.150;-110.320;2022-12-17T12:36:52;16.50;99.90
64501;DHT22;50874;24.150;-110.320;2022-12-17T12:39:49;16.50;99.90
64501;DHT22;50874;24.150;-110.320;2022-12-17T12:42:51;16.50;99.90
64501;DHT22;50874;24.150;-110.320;2022-12-17T12:45:43;16.60;99.90
64501;DHT22;50874;24.150;-110.320;2022-12-17T12:51:38;16.50;99.90
64501;DHT22;50874;24.150;-110.320;2022-12-17T12:54:53;16.40;99.90
64501;DHT22;50874;24.150;-110.320;2022-12-17T13:14:25;16.30;99.90
64501;DHT22;50874;24.150;-110.320;2022-12-17T13:19:42;16.30;99.90
64501;DHT22;50874;24.150;-110.320;2022-12-17T13:24:37;16.20;99.90
64501;DHT22;50874;24.150;-110.320;2022-12-17T13:27:04;16.30;99.90
64501;DHT22;50874;24.150;-110.320;2022-12-17T13:29:35;16.30;99.90
64501;DHT22;50874;24.150;-110.320;2022-12-17T13:32:07;16.30;99.90
64501;DHT22;50874;24.150;-110.320;2022-12-17T13:37:57;16.20;99.90
64501;DHT22;50874;24.150;-110.320;2022-12-17T13:40:43;16.10;99.90
64501;DHT22;50874;24.150;-110.320;2022-12-17T13:43:19;16.10;99.90
64501;DHT22;50874;24.150;-110.320;2022-12-17T13:45:46;16.10;99.90
64501;DHT22;50874;24.150;-110.320;2022-12-17T13:48:23;16.10;99.90
64501;DHT22;50874;24.150;-110.320;2022-12-17T13:50:58;16.10;99.90
64501;DHT22;50874;24.150;-110.320;2022-12-17T13:53:26;16.10;99.90
64501;DHT22;50874;24.150;-110.320;2022-12-17T13:55:54;16.20;99.90
64501;DHT22;50874;24.150;-110.320;2022-12-17T14:01:02;16.20;99.90
64501;DHT22;50874;24.150;-110.320;2022-12-17T14:03:29;16.10;99.90
64501;DHT22;50874;24.150;-110.320;2022-12-17T14:05:56;16.10;99.90
64501;DHT22;50874;24.150;-110.320;2022-12-17T14:08:27;16.10;99.90
64501;DHT22;50874;24.150;-110.320;2022-12-17T14:10:55;16.20;99.90
64501;DHT22;50874;24.150;-110.320;2022-12-17T14:13:42;16.30;99.90
64501;DHT22;50874;24.150;-110.320;2022-12-17T14:16:17;16.30;99.90
64501;DHT22;50874;24.150;-110.320;2022-12-17T14:18:51;16.40;99.90
64501;DHT22;50874;24.150;-110.320;2022-12-17T14:21:18;16.50;99.90
64501;DHT22;50874;24.150;-110.320;2022-12-17T14:23:49;16.50;99.90
64501;DHT22;50874;24.150;-110.320;2022-12-17T14:26:16;16.50;99.90
64501;DHT22;50874;24.150;-110.320;2022-12-17T14:28:51;16.60;99.90
64501;DHT22;50874;24.150;-110.320;2022-12-17T14:31:26;16.70;99.90
64501;DHT22;50874;24.150;-110.320;2022-12-17T14:34:05;16.70;99.90
64501;DHT22;50874;24.150;-110.320;2022-12-17T14:36:42;16.90;99.90
64501;DHT22;50874;24.150;-110.320;2022-12-17T14:39:24;16.80;99.90
64501;DHT22;50874;24.150;-110.320;2022-12-17T14:41:52;16.90;99.90
64501;DHT22;50874;24.150;-110.320;2022-12-17T14:47:35;17.00;99.90
64501;DHT22;50874;24.150;-110.320;2022-12-17T14:52:50;17.20;99.90
64501;DHT22;50874;24.150;-110.320;2022-12-17T14:55:37;17.30;99.90
64501;DHT22;50874;24.150;-110.320;2022-12-17T14:58:08;17.40;99.90
64501;DHT22;50874;24.150;-110.320;2022-12-17T15:00:49;17.50;99.90
64501;DHT22;50874;24.150;-110.320;2022-12-17T15:03:27;17.60;99.90
64501;DHT22;50874;24.150;-110.320;2022-12-17T15:06:00;17.70;99.90
64501;DHT22;50874;24.150;-110.320;2022-12-17T15:09:08;17.80;99.90
64501;DHT22;50874;24.150;-110.320;2022-12-17T15:11:27;17.80;99.90
64501;DHT22;50874;24.150;-110.320;2022-12-17T15:13:53;17.90;99.90
64501;DHT22;50874;24.150;-110.320;2022-12-17T15:16:20;17.90;99.90
64501;DHT22;50874;24.150;-110.320;2022-12-17T15:18:46;18.00;99.90
64501;DHT22;50874;24.150;-110.320;2022-12-17T15:21:13;18.10;99.90
64501;DHT22;50874;24.150;-110.320;2022-12-17T15:23:42;18.20;99.90
64501;DHT22;50874;24.150;-110.320;2022-12-17T15:26:09;18.20;99.90
64501;DHT22;50874;24.150;-110.320;2022-12-17T15:28:36;18.40;99.90
64501;DHT22;50874;24.150;-110.320;2022-12-17T15:31:03;18.60;99.90
64501;DHT22;50874;24.150;-110.320;2022-12-17T15:33:29;18.90;99.90
64501;DHT22;50874;24.150;-110.320;2022-12-17T15:35:57;19.30;99.90
64501;DHT22;50874;24.150;-110.320;2022-12-17T15:38:24;19.40;99.90
64501;DHT22;50874;24.150;-110.320;2022-12-17T15:40:52;19.90;99.90
64501;DHT22;50874;24.150;-110.320;2022-12-17T15:43:19;20.40;99.90
64501;DHT22;50874;24.150;-110.320;2022-12-17T15:45:50;20.70;99.90
64501;DHT22;50874;24.150;-110.320;2022-12-17T15:48:19;20.70;99.90
64501;DHT22;50874;24.150;-110.320;2022-12-17T15:50:46;21.00;99.90
64501;DHT22;50874;24.150;-110.320;2022-12-17T15:53:13;21.60;99.90
64501;DHT22;50874;24.150;-110.320;2022-12-17T15:55:40;21.50;99.90
64501;DHT22;50874;24.150;-110.320;2022-12-17T15:58:07;21.50;99.90
64501;DHT22;50874;24.150;-110.320;2022-12-17T16:00:36;21.20;99.90
64501;DHT22;50874;24.150;-110.320;2022-12-17T16:03:03;21.30;99.90
64501;DHT22;50874;24.150;-110.320;2022-12-17T16:05:30;21.30;99.90
64501;DHT22;50874;24.150;-110.320;2022-12-17T16:07:56;20.90;99.90
64501;DHT22;50874;24.150;-110.320;2022-12-17T16:10:27;20.50;99.90
64501;DHT22;50874;24.150;-110.320;2022-12-17T16:12:53;20.20;99.90
64501;DHT22;50874;24.150;-110.320;2022-12-17T16:15:20;20.10;99.90
64501;DHT22;50874;24.150;-110.320;2022-12-17T16:17:46;20.10;99.90
64501;DHT22;50874;24.150;-110.320;2022-12-17T16:20:12;20.00;99.90
64501;DHT22;50874;24.150;-110.320;2022-12-17T16:22:39;20.00;99.90
64501;DHT22;50874;24.150;-110.320;2022-12-17T16:25:06;20.10;99.90
64501;DHT22;50874;24.150;-110.320;2022-12-17T16:27:32;20.30;99.90
64501;DHT22;50874;24.150;-110.320;2022-12-17T16:29:59;20.60;99.90
64501;DHT22;50874;24.150;-110.320;2022-12-17T16:32:25;20.70;99.90
64501;DHT22;50874;24.150;-110.320;2022-12-17T16:34:52;20.60;99.90
64501;DHT22;50874;24.150;-110.320;2022-12-17T16:37:18;20.40;99.90
64501;DHT22;50874;24.150;-110.320;2022-12-17T16:39:45;20.40;99.90
64501;DHT22;50874;24.150;-110.320;2022-12-17T16:42:11;20.40;99.90
64501;DHT22;50874;24.150;-110.320;2022-12-17T16:44:38;20.50;99.90
64501;DHT22;50874;24.150;-110.320;2022-12-17T16:47:04;20.50;99.90
64501;DHT22;50874;24.150;-110.320;2022-12-17T16:49:30;20.40;99.90
64501;DHT22;50874;24.150;-110.320;2022-12-17T16:51:57;20.50;99.90
64501;DHT22;50874;24.150;-110.320;2022-12-17T16:54:26;20.90;99.90
64501;DHT22;50874;24.150;-110.320;2022-12-17T16:56:53;20.90;99.90
64501;DHT22;50874;24.150;-110.320;2022-12-17T16:59:20;20.60;99.90
64501;DHT22;50874;24.150;-110.320;2022-12-17T17:01:50;20.40;99.90
64501;DHT22;50874;24.150;-110.320;2022-12-17T17:04:19;20.30;99.90
64501;DHT22;50874;24.150;-110.320;2022-12-17T17:06:49;20.30;99.90
64501;DHT22;50874;24.150;-110.320;2022-12-17T17:09:17;20.50;99.90
64501;DHT22;50874;24.150;-110.320;2022-12-17T17:11:44;20.80;99.90
64501;DHT22;50874;24.150;-110.320;2022-12-17T17:14:10;21.10;99.90
64501;DHT22;50874;24.150;-110.320;2022-12-17T17:16:40;21.60;99.90
64501;DHT22;50874;24.150;-110.320;2022-12-17T17:19:07;21.70;99.90
64501;DHT22;50874;24.150;-110.320;2022-12-17T17:21:38;22.10;99.90
64501;DHT22;50874;24.150;-110.320;2022-12-17T17:24:13;22.40;99.90
64501;DHT22;50874;24.150;-110.320;2022-12-17T17:26:43;22.60;99.90
64501;DHT22;50874;24.150;-110.320;2022-12-17T17:29:09;23.10;99.90
64501;DHT22;50874;24.150;-110.320;2022-12-17T17:31:37;22.60;99.90
64501;DHT22;50874;24.150;-110.320;2022-12-17T17:34:08;22.70;99.90
64501;DHT22;50874;24.150;-110.320;2022-12-17T17:36:35;22.90;99.90
64501;DHT22;50874;24.150;-110.320;2022-12-17T17:39:02;23.10;99.90
64501;DHT22;50874;24.150;-110.320;2022-12-17T17:41:30;22.70;99.90
64501;DHT22;50874;24.150;-110.320;2022-12-17T17:43:59;22.20;99.90
64501;DHT22;50874;24.150;-110.320;2022-12-17T17:46:27;22.10;99.90
64501;DHT22;50874;24.150;-110.320;2022-12-17T17:48:56;22.30;99.90
64501;DHT22;50874;24.150;-110.320;2022-12-17T17:51:34;21.70;99.90
64501;DHT22;50874;24.150;-110.320;2022-12-17T17:54:03;21.20;99.90